sensor_id;sensor_type;location;lat;lon;timestamp;pressure;altitude;pressure_sealevel;temperature;humidity
52032;BME280;38044;45.148;39.604;2022-09-24T00:01:59;100976.25;;;9.42;89.66
52032;BME280;38044;45.148;39.604;2022-09-24T00:04:25;100996.88;;;9.52;89.49
52032;BME280;38044;45.148;39.604;2022-09-24T00:06:52;100990.44;;;9.48;89.28
52032;BME280;38044;45.148;39.604;2022-09-24T00:09:19;100959.38;;;9.27;89.33
52032;BME280;38044;45.148;39.604;2022-09-24T00:11:47;100990.44;;;9.48;89.28
52032;BME280;38044;45.148;39.604;2022-09-24T00:14:15;100843.69;;;8.53;89.24
52032;BME280;38044;45.148;39.604;2022-09-24T00:16:43;100876.09;;;8.72;89.54
52032;BME280;38044;45.148;39.604;2022-09-24T00:19:11;100984.59;;;9.31;89.69
52032;BME280;38044;45.148;39.604;2022-09-24T00:21:39;100959.94;;;9.13;89.69
52032;BME280;38044;45.148;39.604;2022-09-24T00:24:08;100957.78;;;9.25;89.82
52032;BME280;38044;45.148;39.604;2022-09-24T00:26:34;100976.00;;;9.34;90.16
52032;BME280;38044;45.148;39.604;2022-09-24T00:29:21;100896.72;;;8.76;89.58
52032;BME280;38044;45.148;39.604;2022-09-24T00:31:49;100994.53;;;9.20;89.68
52032;BME280;38044;45.148;39.604;2022-09-24T00:34:16;100986.22;;;9.01;89.96
52032;BME280;38044;45.148;39.604;2022-09-24T00:36:42;101003.94;;;9.07;90.05
52032;BME280;38044;45.148;39.604;2022-09-24T00:39:11;101002.84;;;8.98;90.29
52032;BME280;38044;45.148;39.604;2022-09-24T00:41:39;100993.47;;;9.00;90.46
52032;BME280;38044;45.148;39.604;2022-09-24T00:47:10;100998.84;;;9.06;90.09
52032;BME280;38044;45.148;39.604;2022-09-24T00:49:39;100869.94;;;8.30;90.22
52032;BME280;38044;45.148;39.604;2022-09-24T00:52:05;100972.31;;;8.89;90.23
52032;BME280;38044;45.148;39.604;2022-09-24T00:54:32;100787.66;;;7.70;89.79
52032;BME280;38044;45.148;39.604;2022-09-24T00:56:59;100958.34;;;8.87;90.26
52032;BME280;38044;45.148;39.604;2022-09-24T00:59:26;101019.75;;;9.19;90.12
52032;BME280;38044;45.148;39.604;2022-09-24T01:01:53;101000.16;;;9.23;90.24
52032;BME280;38044;45.148;39.604;2022-09-24T01:04:25;100984.59;;;9.20;90.24
52032;BME280;38044;45.148;39.604;2022-09-24T01:06:51;100992.91;;;9.29;90.27
52032;BME280;38044;45.148;39.604;2022-09-24T01:09:19;101005.75;;;9.37;90.52
52032;BME280;38044;45.148;39.604;2022-09-24T01:11:53;100849.84;;;8.59;90.58
52032;BME280;38044;45.148;39.604;2022-09-24T01:17:38;100834.28;;;8.76;90.28
52032;BME280;38044;45.148;39.604;2022-09-24T01:29:17;100937.31;;;9.45;89.65
52032;BME280;38044;45.148;39.604;2022-09-24T01:32:06;100942.69;;;9.45;89.32
52032;BME280;38044;45.148;39.604;2022-09-24T01:34:48;100956.91;;;9.51;89.60
52032;BME280;38044;45.148;39.604;2022-09-24T01:37:20;100954.53;;;9.39;89.57
52032;BME280;38044;45.148;39.604;2022-09-24T01:39:48;100950.22;;;9.33;89.54
52032;BME280;38044;45.148;39.604;2022-09-24T01:42:16;100927.75;;;9.13;89.73
52032;BME280;38044;45.148;39.604;2022-09-24T01:44:45;100924.53;;;9.06;89.67
52032;BME280;38044;45.148;39.604;2022-09-24T01:47:19;100818.25;;;8.30;90.04
52032;BME280;38044;45.148;39.604;2022-09-24T01:49:46;100967.16;;;9.18;90.24
52032;BME280;38044;45.148;39.604;2022-09-24T01:52:15;100952.94;;;9.17;90.46
52032;BME280;38044;45.148;39.604;2022-09-24T01:54:45;100971.16;;;9.36;90.49
52032;BME280;38044;45.148;39.604;2022-09-24T01:57:24;100972.47;;;9.43;90.29
52032;BME280;38044;45.148;39.604;2022-09-24T02:02:39;100972.22;;;9.45;90.28
52032;BME280;38044;45.148;39.604;2022-09-24T02:05:24;100937.34;;;9.30;90.28
52032;BME280;38044;45.148;39.604;2022-09-24T02:08:01;100955.56;;;9.53;90.38
52032;BME280;38044;45.148;39.604;2022-09-24T02:10:31;100942.72;;;9.35;89.82
52032;BME280;38044;45.148;39.604;2022-09-24T02:13:03;100965.50;;;9.47;90.03
52032;BME280;38044;45.148;39.604;2022-09-24T02:15:35;100824.38;;;8.66;89.72
52032;BME280;38044;45.148;39.604;2022-09-24T02:18:04;100958.47;;;9.57;89.79
52032;BME280;38044;45.148;39.604;2022-09-24T02:20:33;100964.97;;;9.45;89.29
52032;BME280;38044;45.148;39.604;2022-09-24T02:22:59;100968.19;;;9.37;89.62
52032;BME280;38044;45.148;39.604;2022-09-24T02:25:37;100948.13;;;9.24;89.39
52032;BME280;38044;45.148;39.604;2022-09-24T02:28:06;100967.41;;;9.27;89.43
52032;BME280;38044;45.148;39.604;2022-09-24T02:30:38;100948.13;;;9.19;89.57
52032;BME280;38044;45.148;39.604;2022-09-24T02:33:08;100957.78;;;9.25;90.17
52032;BME280;38044;45.148;39.604;2022-09-24T02:35:55;100943.31;;;9.21;90.29
52032;BME280;38044;45.148;39.604;2022-09-24T02:38:22;100899.38;;;8.97;90.16
52032;BME280;38044;45.148;39.604;2022-09-24T02:40:48;100831.34;;;8.57;89.99
52032;BME280;38044;45.148;39.604;2022-09-24T02:43:15;100937.34;;;9.30;89.97
52032;BME280;38044;45.148;39.604;2022-09-24T02:45:41;100806.72;;;8.45;89.91
52032;BME280;38044;45.148;39.604;2022-09-24T02:48:06;100825.69;;;8.64;90.19
52032;BME280;38044;45.148;39.604;2022-09-24T02:50:32;100803.47;;;8.58;89.88
52032;BME280;38044;45.148;39.604;2022-09-24T02:52:58;100950.44;;;9.57;90.00
52032;BME280;38044;45.148;39.604;2022-09-24T02:55:24;100922.31;;;9.39;89.85
52032;BME280;38044;45.148;39.604;2022-09-24T02:57:50;100942.63;;;9.60;89.96
52032;BME280;38044;45.148;39.604;2022-09-24T03:00:16;100824.59;;;8.80;89.95
52032;BME280;38044;45.148;39.604;2022-09-24T03:02:45;100955.50;;;9.63;89.72
52032;BME280;38044;45.148;39.604;2022-09-24T03:05:13;100952.78;;;9.68;89.78
52032;BME280;38044;45.148;39.604;2022-09-24T03:07:43;100821.13;;;8.79;89.45
52032;BME280;38044;45.148;39.604;2022-09-24T03:10:10;100954.69;;;9.63;89.44
52032;BME280;38044;45.148;39.604;2022-09-24T03:12:36;100957.94;;;9.60;89.64
52032;BME280;38044;45.148;39.604;2022-09-24T03:15:02;100866.66;;;8.90;89.71
52032;BME280;38044;45.148;39.604;2022-09-24T03:17:28;100930.69;;;9.12;90.03
52032;BME280;38044;45.148;39.604;2022-09-24T03:19:54;100949.47;;;9.17;90.48
52032;BME280;38044;45.148;39.604;2022-09-24T03:22:20;100969.59;;;9.14;90.51
52032;BME280;38044;45.148;39.604;2022-09-24T03:24:45;100937.16;;;8.95;90.93
52032;BME280;38044;45.148;39.604;2022-09-24T03:27:11;100970.94;;;9.12;91.11
52032;BME280;38044;45.148;39.604;2022-09-24T03:29:37;100984.34;;;9.27;91.08
52032;BME280;38044;45.148;39.604;2022-09-24T03:32:21;100858.69;;;8.44;90.91
52032;BME280;38044;45.148;39.604;2022-09-24T03:34:48;100988.06;;;9.36;91.05
52032;BME280;38044;45.148;39.604;2022-09-24T03:37:13;100971.13;;;9.41;91.04
52032;BME280;38044;45.148;39.604;2022-09-24T03:39:39;100966.28;;;9.48;90.52
52032;BME280;38044;45.148;39.604;2022-09-24T03:42:05;100983.97;;;9.64;90.47
52032;BME280;38044;45.148;39.604;2022-09-24T03:44:31;100985.00;;;9.74;90.31
52032;BME280;38044;45.148;39.604;2022-09-24T03:46:56;100993.28;;;9.77;89.82
52032;BME280;38044;45.148;39.604;2022-09-24T03:49:22;100962.75;;;9.68;89.36
52032;BME280;38044;45.148;39.604;2022-09-24T03:51:48;100975.84;;;9.80;89.32
52032;BME280;38044;45.148;39.604;2022-09-24T03:54:15;100969.38;;;9.81;89.27
52032;BME280;38044;45.148;39.604;2022-09-24T03:56:41;100820.25;;;9.05;89.12
52032;BME280;38044;45.148;39.604;2022-09-24T03:59:11;100985.81;;;10.24;89.24
52032;BME280;38044;45.148;39.604;2022-09-24T04:01:36;100973.94;;;10.40;89.25
52032;BME280;38044;45.148;39.604;2022-09-24T04:04:03;100840.06;;;9.63;88.94
52032;BME280;38044;45.148;39.604;2022-09-24T04:06:30;100862.75;;;9.86;88.67
52032;BME280;38044;45.148;39.604;2022-09-24T04:08:56;100858.19;;;9.87;88.44
52032;BME280;38044;45.148;39.604;2022-09-24T04:11:23;100857.34;;;9.97;88.00
52032;BME280;38044;45.148;39.604;2022-09-24T04:13:49;100908.31;;;10.41;87.95
52032;BME280;38044;45.148;39.604;2022-09-24T04:16:15;100887.59;;;10.47;87.80
52032;BME280;38044;45.148;39.604;2022-09-24T04:18:41;100945.84;;;10.91;87.67
52032;BME280;38044;45.148;39.604;2022-09-24T04:21:08;100964.41;;;11.16;87.27
52032;BME280;38044;45.148;39.604;2022-09-24T04:23:34;100936.47;;;11.12;87.37
52032;BME280;38044;45.148;39.604;2022-09-24T04:26:01;100968.66;;;11.46;87.28
52032;BME280;38044;45.148;39.604;2022-09-24T04:28:27;100932.81;;;11.51;86.72
52032;BME280;38044;45.148;39.604;2022-09-24T04:30:54;100961.16;;;12.10;86.44
52032;BME280;38044;45.148;39.604;2022-09-24T04:33:20;100818.19;;;11.64;85.37
52032;BME280;38044;45.148;39.604;2022-09-24T04:35:46;100832.50;;;12.16;84.31
52032;BME280;38044;45.148;39.604;2022-09-24T04:38:12;100964.09;;;13.45;83.29
52032;BME280;38044;45.148;39.604;2022-09-24T04:40:38;100953.94;;;13.64;82.16
52032;BME280;38044;45.148;39.604;2022-09-24T04:43:05;100979.66;;;13.75;81.31
52032;BME280;38044;45.148;39.604;2022-09-24T04:45:32;100993.19;;;13.48;81.72
52032;BME280;38044;45.148;39.604;2022-09-24T04:47:58;100967.09;;;12.97;82.58
52032;BME280;38044;45.148;39.604;2022-09-24T04:50:25;100912.03;;;12.32;83.41
52032;BME280;38044;45.148;39.604;2022-09-24T04:52:53;100940.25;;;12.21;83.94
52032;BME280;38044;45.148;39.604;2022-09-24T04:55:19;100938.75;;;11.96;84.39
52032;BME280;38044;45.148;39.604;2022-09-24T04:57:45;100918.78;;;11.73;85.27
52032;BME280;38044;45.148;39.604;2022-09-24T05:00:14;100948.25;;;11.88;85.53
52032;BME280;38044;45.148;39.604;2022-09-24T05:02:42;100982.56;;;12.02;86.00
52032;BME280;38044;45.148;39.604;2022-09-24T05:05:08;100984.81;;;11.94;85.97
52032;BME280;38044;45.148;39.604;2022-09-24T05:07:36;100978.41;;;11.90;85.98
52032;BME280;38044;45.148;39.604;2022-09-24T05:10:02;100979.94;;;11.97;86.05
52032;BME280;38044;45.148;39.604;2022-09-24T05:12:28;100983.72;;;11.95;86.03
52032;BME280;38044;45.148;39.604;2022-09-24T05:14:54;100958.06;;;11.79;86.06
52032;BME280;38044;45.148;39.604;2022-09-24T05:17:20;100968.66;;;11.94;86.45
52032;BME280;38044;45.148;39.604;2022-09-24T05:19:49;100963.31;;;11.89;85.97
52032;BME280;38044;45.148;39.604;2022-09-24T05:22:15;101002.09;;;12.12;86.49
52032;BME280;38044;45.148;39.604;2022-09-24T05:24:41;100995.69;;;12.08;86.34
52032;BME280;38044;45.148;39.604;2022-09-24T05:27:07;101014.13;;;12.20;86.74
52032;BME280;38044;45.148;39.604;2022-09-24T05:29:38;101026.19;;;12.42;86.84
52032;BME280;38044;45.148;39.604;2022-09-24T05:32:22;101039.97;;;12.59;86.47
52032;BME280;38044;45.148;39.604;2022-09-24T05:34:48;101034.50;;;12.64;86.21
52032;BME280;38044;45.148;39.604;2022-09-24T05:37:15;100973.63;;;12.25;85.85
52032;BME280;38044;45.148;39.604;2022-09-24T05:39:42;100891.22;;;11.81;85.56
52032;BME280;38044;45.148;39.604;2022-09-24T05:42:09;101002.72;;;12.61;85.36
52032;BME280;38044;45.148;39.604;2022-09-24T05:44:38;101023.91;;;12.87;84.87
52032;BME280;38044;45.148;39.604;2022-09-24T05:47:04;101030.34;;;12.91;84.75
52032;BME280;38044;45.148;39.604;2022-09-24T05:49:30;100879.75;;;11.94;84.68
52032;BME280;38044;45.148;39.604;2022-09-24T05:51:56;101021.53;;;12.85;84.94
52032;BME280;38044;45.148;39.604;2022-09-24T05:54:22;101022.81;;;12.88;85.78
52032;BME280;38044;45.148;39.604;2022-09-24T05:56:48;101050.56;;;13.07;85.89
52032;BME280;38044;45.148;39.604;2022-09-24T05:59:14;101047.28;;;13.10;85.51
52032;BME280;38044;45.148;39.604;2022-09-24T06:01:40;101019.16;;;12.97;85.54
52032;BME280;38044;45.148;39.604;2022-09-24T06:04:06;101056.50;;;13.23;85.45
52032;BME280;38044;45.148;39.604;2022-09-24T06:06:32;101015.56;;;13.02;85.39
52032;BME280;38044;45.148;39.604;2022-09-24T06:08:58;101051.25;;;13.32;85.59
52032;BME280;38044;45.148;39.604;2022-09-24T06:11:24;101045.78;;;13.37;85.62
52032;BME280;38044;45.148;39.604;2022-09-24T06:13:52;101002.75;;;13.26;85.50
52032;BME280;38044;45.148;39.604;2022-09-24T06:16:17;101037.59;;;13.69;85.03
52032;BME280;38044;45.148;39.604;2022-09-24T06:18:44;101052.94;;;13.88;84.82
52032;BME280;38044;45.148;39.604;2022-09-24T06:21:13;100906.22;;;13.18;84.32
52032;BME280;38044;45.148;39.604;2022-09-24T06:23:40;101043.00;;;14.11;84.29
52032;BME280;38044;45.148;39.604;2022-09-24T06:26:09;101043.97;;;14.29;84.08
52032;BME280;38044;45.148;39.604;2022-09-24T06:28:36;100940.63;;;13.82;83.64
52032;BME280;38044;45.148;39.604;2022-09-24T06:31:03;100939.97;;;13.98;82.82
52032;BME280;38044;45.148;39.604;2022-09-24T06:33:29;101010.41;;;14.66;82.89
52032;BME280;38044;45.148;39.604;2022-09-24T06:35:59;101031.84;;;15.07;82.85
52032;BME280;38044;45.148;39.604;2022-09-24T06:38:26;100968.13;;;15.01;81.69
52032;BME280;38044;45.148;39.604;2022-09-24T06:40:52;101024.47;;;16.10;80.28
52032;BME280;38044;45.148;39.604;2022-09-24T06:43:17;100926.19;;;16.05;78.23
52032;BME280;38044;45.148;39.604;2022-09-24T06:45:43;101029.97;;;16.80;76.93
52032;BME280;38044;45.148;39.604;2022-09-24T06:48:11;100960.22;;;16.28;76.33
52032;BME280;38044;45.148;39.604;2022-09-24T06:50:40;101059.16;;;16.74;75.81
52032;BME280;38044;45.148;39.604;2022-09-24T06:53:07;101047.03;;;16.80;75.86
52032;BME280;38044;45.148;39.604;2022-09-24T06:55:34;101050.22;;;16.82;75.05
52032;BME280;38044;45.148;39.604;2022-09-24T06:58:02;101005.97;;;16.56;73.74
52032;BME280;38044;45.148;39.604;2022-09-24T07:00:29;101017.63;;;16.30;73.97
52032;BME280;38044;45.148;39.604;2022-09-24T07:02:54;101030.38;;;16.04;74.62
52032;BME280;38044;45.148;39.604;2022-09-24T07:05:20;101033.19;;;15.81;74.47
52032;BME280;38044;45.148;39.604;2022-09-24T07:07:46;101004.19;;;15.50;74.75
52032;BME280;38044;45.148;39.604;2022-09-24T07:10:12;100928.50;;;15.05;75.72
52032;BME280;38044;45.148;39.604;2022-09-24T07:12:40;101000.38;;;15.91;75.00
52032;BME280;38044;45.148;39.604;2022-09-24T07:15:07;101011.25;;;16.43;73.12
52032;BME280;38044;45.148;39.604;2022-09-24T07:17:33;100963.88;;;16.24;72.67
52032;BME280;38044;45.148;39.604;2022-09-24T07:19:59;100924.72;;;16.85;71.52
52032;BME280;38044;45.148;39.604;2022-09-24T07:22:25;100992.31;;;18.56;68.42
52032;BME280;38044;45.148;39.604;2022-09-24T07:24:51;100848.78;;;18.78;65.71
52032;BME280;38044;45.148;39.604;2022-09-24T07:27:17;100979.56;;;20.41;63.84
52032;BME280;38044;45.148;39.604;2022-09-24T07:29:48;100962.94;;;20.74;61.95
52032;BME280;38044;45.148;39.604;2022-09-24T07:32:15;100980.25;;;21.10;60.78
52032;BME280;38044;45.148;39.604;2022-09-24T07:34:45;100984.28;;;21.79;58.97
52032;BME280;38044;45.148;39.604;2022-09-24T07:37:11;100958.28;;;22.44;56.20
52032;BME280;38044;45.148;39.604;2022-09-24T07:39:37;100962.09;;;23.01;55.21
52032;BME280;38044;45.148;39.604;2022-09-24T07:42:04;100987.00;;;22.73;54.89
52032;BME280;38044;45.148;39.604;2022-09-24T07:44:30;100969.78;;;22.53;54.85
52032;BME280;38044;45.148;39.604;2022-09-24T07:46:56;100963.88;;;22.32;54.59
52032;BME280;38044;45.148;39.604;2022-09-24T07:49:22;100877.47;;;21.56;53.78
52032;BME280;38044;45.148;39.604;2022-09-24T07:51:48;100977.53;;;21.93;54.77
52032;BME280;38044;45.148;39.604;2022-09-24T07:54:14;100987.53;;;21.85;55.40
52032;BME280;38044;45.148;39.604;2022-09-24T07:56:41;100939.19;;;21.73;55.28
52032;BME280;38044;45.148;39.604;2022-09-24T07:59:07;100849.13;;;21.13;55.33
52032;BME280;38044;45.148;39.604;2022-09-24T08:01:36;100962.97;;;21.89;54.88
52032;BME280;38044;45.148;39.604;2022-09-24T08:04:02;100932.25;;;21.60;53.97
52032;BME280;38044;45.148;39.604;2022-09-24T08:06:35;100959.25;;;21.62;54.75
52032;BME280;38044;45.148;39.604;2022-09-24T08:09:01;100951.56;;;21.67;54.62
52032;BME280;38044;45.148;39.604;2022-09-24T08:11:27;100904.09;;;21.95;53.50
52032;BME280;38044;45.148;39.604;2022-09-24T08:13:55;100964.78;;;23.47;51.38
52032;BME280;38044;45.148;39.604;2022-09-24T08:16:22;100925.16;;;24.01;50.06
52032;BME280;38044;45.148;39.604;2022-09-24T08:18:48;100852.22;;;24.41;48.77
52032;BME280;38044;45.148;39.604;2022-09-24T08:21:14;100867.63;;;24.98;47.34
52032;BME280;38044;45.148;39.604;2022-09-24T08:23:42;100968.91;;;25.84;46.17
52032;BME280;38044;45.148;39.604;2022-09-24T08:26:09;100978.16;;;25.58;45.99
52032;BME280;38044;45.148;39.604;2022-09-24T08:28:36;100957.63;;;25.49;47.42
52032;BME280;38044;45.148;39.604;2022-09-24T08:31:04;100845.84;;;25.26;46.22
52032;BME280;38044;45.148;39.604;2022-09-24T08:33:34;100897.31;;;25.84;45.18
52032;BME280;38044;45.148;39.604;2022-09-24T08:36:03;100983.41;;;26.87;44.49
52032;BME280;38044;45.148;39.604;2022-09-24T08:38:29;100989.34;;;26.82;44.96
52032;BME280;38044;45.148;39.604;2022-09-24T08:41:50;100916.78;;;25.58;45.82
52032;BME280;38044;45.148;39.604;2022-09-24T08:46:38;100996.59;;;24.35;49.20
52032;BME280;38044;45.148;39.604;2022-09-24T08:49:27;101010.25;;;23.48;50.81
52032;BME280;38044;45.148;39.604;2022-09-24T08:51:57;101007.91;;;23.01;51.46
52032;BME280;38044;45.148;39.604;2022-09-24T08:54:27;101003.81;;;23.37;51.29
52032;BME280;38044;45.148;39.604;2022-09-24T08:56:54;100985.19;;;23.73;50.36
52032;BME280;38044;45.148;39.604;2022-09-24T08:59:28;101006.84;;;24.38;48.83
52032;BME280;38044;45.148;39.604;2022-09-24T09:10:34;100991.81;;;25.03;46.96
52032;BME280;38044;45.148;39.604;2022-09-24T09:13:12;101005.75;;;24.80;46.76
52032;BME280;38044;45.148;39.604;2022-09-24T09:15:49;100996.00;;;24.49;46.09
52032;BME280;38044;45.148;39.604;2022-09-24T09:21:38;100979.09;;;24.47;48.54
52032;BME280;38044;45.148;39.604;2022-09-24T09:24:48;101004.84;;;24.69;48.66
52032;BME280;38044;45.148;39.604;2022-09-24T09:27:16;101017.22;;;24.22;48.00
52032;BME280;38044;45.148;39.604;2022-09-24T09:29:57;101006.09;;;23.81;48.77
52032;BME280;38044;45.148;39.604;2022-09-24T09:40:35;101005.13;;;22.58;52.99
52032;BME280;38044;45.148;39.604;2022-09-24T09:43:09;100923.72;;;22.00;53.17
52032;BME280;38044;45.148;39.604;2022-09-24T09:48:21;101016.03;;;22.78;52.45
52032;BME280;38044;45.148;39.604;2022-09-24T09:50:56;101006.34;;;23.03;52.70
52032;BME280;38044;45.148;39.604;2022-09-24T09:53:26;101000.88;;;23.03;52.66
52032;BME280;38044;45.148;39.604;2022-09-24T09:55:54;101003.19;;;22.59;51.81
52032;BME280;38044;45.148;39.604;2022-09-24T09:58:34;100990.69;;;22.22;52.65
52032;BME280;38044;45.148;39.604;2022-09-24T10:01:19;100954.09;;;21.76;52.83
52032;BME280;38044;45.148;39.604;2022-09-24T10:06:22;101006.34;;;22.22;53.29
52032;BME280;38044;45.148;39.604;2022-09-24T10:08:48;100994.91;;;22.36;53.44
52032;BME280;38044;45.148;39.604;2022-09-24T10:11:15;100998.94;;;22.42;53.75
52032;BME280;38044;45.148;39.604;2022-09-24T10:13:42;100975.72;;;21.81;52.60
52032;BME280;38044;45.148;39.604;2022-09-24T10:16:09;100983.09;;;21.61;54.25
52032;BME280;38044;45.148;39.604;2022-09-24T10:21:06;100878.94;;;21.19;53.45
52032;BME280;38044;45.148;39.604;2022-09-24T10:23:42;100957.69;;;22.15;52.71
52032;BME280;38044;45.148;39.604;2022-09-24T10:26:09;100877.09;;;21.39;53.06
52032;BME280;38044;45.148;39.604;2022-09-24T10:28:47;100939.22;;;21.57;52.54
52032;BME280;38044;45.148;39.604;2022-09-24T10:31:39;100893.19;;;21.28;53.10
52032;BME280;38044;45.148;39.604;2022-09-24T10:34:21;100886.22;;;21.30;52.38
52032;BME280;38044;45.148;39.604;2022-09-24T10:37:02;100868.47;;;21.05;52.34
52032;BME280;38044;45.148;39.604;2022-09-24T10:39:29;100957.94;;;21.55;53.03
52032;BME280;38044;45.148;39.604;2022-09-24T10:41:56;100978.53;;;21.85;53.20
52032;BME280;38044;45.148;39.604;2022-09-24T10:44:25;100963.28;;;21.68;53.33
52032;BME280;38044;45.148;39.604;2022-09-24T10:47:12;100955.41;;;21.82;54.52
52032;BME280;38044;45.148;39.604;2022-09-24T10:50:17;100976.69;;;22.08;53.45
52032;BME280;38044;45.148;39.604;2022-09-24T10:53:06;101000.16;;;21.90;53.21
52032;BME280;38044;45.148;39.604;2022-09-24T10:55:43;100964.53;;;21.54;53.03
52032;BME280;38044;45.148;39.604;2022-09-24T11:01:21;100963.28;;;20.88;55.69
52032;BME280;38044;45.148;39.604;2022-09-24T11:04:51;100989.59;;;21.25;55.53
52032;BME280;38044;45.148;39.604;2022-09-24T11:12:51;100984.31;;;21.48;55.35
52032;BME280;38044;45.148;39.604;2022-09-24T11:15:40;100927.44;;;21.22;54.78
52032;BME280;38044;45.148;39.604;2022-09-24T11:18:26;100979.81;;;21.55;54.74
52032;BME280;38044;45.148;39.604;2022-09-24T11:21:06;100857.53;;;20.73;55.46
52032;BME280;38044;45.148;39.604;2022-09-24T11:27:06;100839.16;;;20.26;55.39
52032;BME280;38044;45.148;39.604;2022-09-24T11:32:44;100973.88;;;21.06;54.34
52032;BME280;38044;45.148;39.604;2022-09-24T11:35:21;100959.44;;;20.89;53.78
52032;BME280;38044;45.148;39.604;2022-09-24T11:38:15;100988.72;;;21.05;54.89
52032;BME280;38044;45.148;39.604;2022-09-24T11:41:13;100993.09;;;20.93;54.76
52032;BME280;38044;45.148;39.604;2022-09-24T11:49:27;100850.06;;;20.26;53.90
52032;BME280;38044;45.148;39.604;2022-09-24T11:52:21;100988.00;;;21.71;52.74
52032;BME280;38044;45.148;39.604;2022-09-24T11:54:58;100956.00;;;21.40;52.06
52032;BME280;38044;45.148;39.604;2022-09-24T11:57:36;100873.56;;;20.59;52.27
52032;BME280;38044;45.148;39.604;2022-09-24T12:00:06;100900.53;;;20.76;52.95
52032;BME280;38044;45.148;39.604;2022-09-24T12:07:54;100972.59;;;20.56;54.43
52032;BME280;38044;45.148;39.604;2022-09-24T12:10:37;100995.00;;;20.49;55.34
52032;BME280;38044;45.148;39.604;2022-09-24T12:13:16;100990.25;;;20.46;55.08
52032;BME280;38044;45.148;39.604;2022-09-24T12:18:53;100904.94;;;19.68;55.10
52032;BME280;38044;45.148;39.604;2022-09-24T12:21:38;100873.00;;;19.56;54.99
52032;BME280;38044;45.148;39.604;2022-09-24T12:24:42;100914.16;;;19.76;54.22
52032;BME280;38044;45.148;39.604;2022-09-24T12:27:13;100970.94;;;19.98;54.14
52032;BME280;38044;45.148;39.604;2022-09-24T12:29:51;100976.72;;;19.97;54.83
52032;BME280;38044;45.148;39.604;2022-09-24T12:38:18;100970.00;;;20.07;53.94
52032;BME280;38044;45.148;39.604;2022-09-24T12:46:00;100972.63;;;20.03;52.65
52032;BME280;38044;45.148;39.604;2022-09-24T12:48:28;100826.28;;;19.05;54.07
52032;BME280;38044;45.148;39.604;2022-09-24T12:51:00;100975.72;;;19.89;52.64
52032;BME280;38044;45.148;39.604;2022-09-24T12:53:39;100829.72;;;18.90;52.57
52032;BME280;38044;45.148;39.604;2022-09-24T12:56:06;100984.84;;;19.69;51.46
52032;BME280;38044;45.148;39.604;2022-09-24T12:58:42;100959.13;;;19.45;52.63
52032;BME280;38044;45.148;39.604;2022-09-24T13:01:11;100868.94;;;18.77;52.77
52032;BME280;38044;45.148;39.604;2022-09-24T13:03:40;100879.22;;;18.71;53.43
52032;BME280;38044;45.148;39.604;2022-09-24T13:06:35;101035.59;;;19.61;53.63
52032;BME280;38044;45.148;39.604;2022-09-24T13:09:03;100897.97;;;18.60;52.66
52032;BME280;38044;45.148;39.604;2022-09-24T13:11:47;101043.25;;;19.22;53.53
52032;BME280;38044;45.148;39.604;2022-09-24T13:16:42;101050.25;;;18.99;54.58
52032;BME280;38044;45.148;39.604;2022-09-24T13:19:41;101051.84;;;19.00;54.08
52032;BME280;38044;45.148;39.604;2022-09-24T13:22:28;101048.06;;;18.71;54.41
52032;BME280;38044;45.148;39.604;2022-09-24T13:25:24;101074.38;;;18.46;55.09
52032;BME280;38044;45.148;39.604;2022-09-24T13:28:02;101067.38;;;18.15;55.83
52032;BME280;38044;45.148;39.604;2022-09-24T13:33:08;100964.78;;;16.88;57.96
52032;BME280;38044;45.148;39.604;2022-09-24T13:38:41;100968.31;;;16.11;60.05
52032;BME280;38044;45.148;39.604;2022-09-24T13:41:22;100970.34;;;15.79;61.98
52032;BME280;38044;45.148;39.604;2022-09-24T13:43:56;100996.22;;;15.85;62.44
52032;BME280;38044;45.148;39.604;2022-09-24T13:46:25;101105.09;;;16.44;62.92
52032;BME280;38044;45.148;39.604;2022-09-24T13:48:55;101069.69;;;15.84;64.51
52032;BME280;38044;45.148;39.604;2022-09-24T13:51:29;101078.44;;;15.72;65.87
52032;BME280;38044;45.148;39.604;2022-09-24T13:54:17;101088.50;;;15.80;66.93
52032;BME280;38044;45.148;39.604;2022-09-24T13:57:14;101093.44;;;15.78;67.78
52032;BME280;38044;45.148;39.604;2022-09-24T13:59:44;101081.88;;;15.32;68.47
52032;BME280;38044;45.148;39.604;2022-09-24T14:02:25;101042.69;;;15.07;69.00
52032;BME280;38044;45.148;39.604;2022-09-24T14:04:56;101052.25;;;15.14;69.62
52032;BME280;38044;45.148;39.604;2022-09-24T14:07:24;101111.72;;;15.41;69.83
52032;BME280;38044;45.148;39.604;2022-09-24T14:10:05;101107.19;;;15.59;69.85
52032;BME280;38044;45.148;39.604;2022-09-24T14:12:31;101072.09;;;15.23;69.64
52032;BME280;38044;45.148;39.604;2022-09-24T14:14:57;101098.44;;;15.31;70.29
52032;BME280;38044;45.148;39.604;2022-09-24T14:17:24;101085.25;;;14.93;70.92
52032;BME280;38044;45.148;39.604;2022-09-24T14:19:55;101081.63;;;14.98;72.17
52032;BME280;38044;45.148;39.604;2022-09-24T14:22:28;100993.84;;;14.45;72.03
52032;BME280;38044;45.148;39.604;2022-09-24T14:25:09;101117.25;;;15.36;73.24
52032;BME280;38044;45.148;39.604;2022-09-24T14:27:46;101086.16;;;15.02;72.86
52032;BME280;38044;45.148;39.604;2022-09-24T14:30:16;101122.19;;;15.34;73.10
52032;BME280;38044;45.148;39.604;2022-09-24T14:32:43;101101.88;;;15.00;72.82
52032;BME280;38044;45.148;39.604;2022-09-24T14:35:24;101108.28;;;15.04;73.55
52032;BME280;38044;45.148;39.604;2022-09-24T14:38:10;101113.19;;;14.80;74.25
52032;BME280;38044;45.148;39.604;2022-09-24T14:40:51;101014.59;;;14.22;74.58